Time;durP1;ratioP1;P1;durP2;ratioP2;P2;SDS_P1;SDS_P2;PMS_P1;PMS_P2;Temp;Humidity;BMP_temperature;BMP_pressure;BME280_temperature;BME280_humidity;BME280_pressure;Samples;Min_cycle;Max_cycle;Signal;HPM_P1;HPM_P2
2023/01/06 00:00:31;;;;;;;42.90;16.05;;;10.10;99.90;;;;;;5066347;28;20555;-79
2023/01/06 00:02:57;;;;;;;44.15;16.70;;;10.10;99.90;;;;;;5089046;28;20810;-78
2023/01/06 00:05:22;;;;;;;38.75;15.18;;;10.10;99.90;;;;;;5089148;28;20436;-78
2023/01/06 00:07:52;;;;;;;40.90;15.53;;;10.10;99.90;;;;;;5089651;28;20394;-79
2023/01/06 00:10:18;;;;;;;39.38;16.10;;;10.10;99.90;;;;;;5089346;28;20405;-78
2023/01/06 00:12:47;;;;;;;42.35;16.50;;;10.10;99.90;;;;;;5086780;28;20405;-78
2023/01/06 00:15:14;;;;;;;41.53;15.60;;;10.10;99.90;;;;;;5089308;28;20402;-78
2023/01/06 00:17:40;;;;;;;39.05;15.00;;;10.10;99.90;;;;;;5088688;28;20410;-78
2023/01/06 00:20:06;;;;;;;37.13;16.07;;;10.10;99.90;;;;;;5089332;28;20422;-79
2023/01/06 00:22:32;;;;;;;37.97;15.48;;;10.10;99.90;;;;;;5071518;28;20456;-78
2023/01/06 00:24:57;;;;;;;35.93;15.80;;;10.10;99.90;;;;;;5072336;28;20406;-78
2023/01/06 00:27:23;;;;;;;37.75;15.80;;;10.10;99.90;;;;;;5093323;28;20927;-78
2023/01/06 00:29:49;;;;;;;38.05;15.27;;;10.10;99.90;;;;;;5088760;28;20402;-78
2023/01/06 00:32:16;;;;;;;34.92;13.68;;;10.10;99.90;;;;;;5088335;28;20775;-78
2023/01/06 00:34:42;;;;;;;32.50;13.50;;;10.20;99.90;;;;;;5088035;28;20406;-78
2023/01/06 00:37:08;;;;;;;28.60;13.30;;;10.20;99.90;;;;;;5088049;28;20733;-79
2023/01/06 00:39:33;;;;;;;31.45;12.57;;;10.20;99.90;;;;;;5090358;28;20406;-78
2023/01/06 00:42:02;;;;;;;28.77;11.60;;;10.20;99.90;;;;;;5091667;28;20429;-79
2023/01/06 00:44:35;;;;;;;28.45;10.88;;;10.20;99.90;;;;;;5076991;28;20410;-78
2023/01/06 00:47:02;;;;;;;25.63;10.45;;;10.30;99.90;;;;;;5076703;28;20406;-79
2023/01/06 00:49:28;;;;;;;28.20;10.27;;;10.30;99.90;;;;;;5094652;28;20406;-78
2023/01/06 00:51:54;;;;;;;29.03;9.73;;;10.30;99.90;;;;;;5094351;28;20405;-78
2023/01/06 00:54:20;;;;;;;24.38;9.15;;;10.20;99.90;;;;;;5094654;28;20398;-78
2023/01/06 00:56:47;;;;;;;27.67;9.27;;;10.30;99.90;;;;;;5093735;28;20402;-79
2023/01/06 00:59:15;;;;;;;28.10;9.07;;;10.30;99.90;;;;;;5095493;28;20491;-78
2023/01/06 01:01:42;;;;;;;24.27;8.30;;;10.30;99.90;;;;;;5094852;28;20779;-78
2023/01/06 01:04:08;;;;;;;24.42;8.55;;;10.30;99.90;;;;;;5092795;28;20413;-78
2023/01/06 01:06:35;;;;;;;24.17;8.07;;;10.30;99.90;;;;;;5089790;28;20410;-79
2023/01/06 01:09:01;;;;;;;31.17;8.38;;;10.30;99.90;;;;;;5089808;28;20438;-79
2023/01/06 01:14:13;;;;;;;27.25;7.90;;;10.30;99.90;;;;;;5092646;28;20413;-78
2023/01/06 01:16:39;;;;;;;24.33;7.78;;;10.30;99.90;;;;;;5089962;28;20402;-78
2023/01/06 01:19:05;;;;;;;26.27;8.50;;;10.40;99.90;;;;;;5075565;28;20402;-79
2023/01/06 01:21:31;;;;;;;25.40;8.40;;;10.40;99.90;;;;;;5090093;28;20469;-79
2023/01/06 01:23:57;;;;;;;25.33;8.30;;;10.40;99.90;;;;;;5089425;28;20441;-78
2023/01/06 01:26:22;;;;;;;24.15;7.90;;;10.40;99.90;;;;;;5089356;28;20485;-79
2023/01/06 01:28:48;;;;;;;27.07;9.20;;;10.40;99.90;;;;;;5092596;28;20409;-79
2023/01/06 01:31:15;;;;;;;27.27;8.75;;;10.40;99.90;;;;;;5089649;28;20409;-79
2023/01/06 01:33:41;;;;;;;20.27;7.93;;;10.40;99.90;;;;;;5089128;28;20414;-79
2023/01/06 01:36:09;;;;;;;23.25;8.43;;;10.40;99.90;;;;;;5090357;28;20402;-78
2023/01/06 01:38:35;;;;;;;23.95;7.95;;;10.40;99.90;;;;;;5091623;28;20417;-79
2023/01/06 01:41:01;;;;;;;16.15;6.55;;;10.40;99.90;;;;;;5089949;28;20433;-78
2023/01/06 01:43:54;;;;;;;20.20;6.67;;;10.50;99.90;;;;;;5092319;28;20402;-78
2023/01/06 01:46:37;;;;;;;16.27;6.28;;;10.40;99.90;;;;;;5093947;28;20427;-79
2023/01/06 01:49:15;;;;;;;14.50;5.38;;;10.50;99.90;;;;;;5073011;28;20414;-78
2023/01/06 01:51:44;;;;;;;13.73;4.90;;;10.50;99.90;;;;;;5088741;28;20432;-78
2023/01/06 01:54:23;;;;;;;16.85;4.22;;;10.50;99.90;;;;;;5090019;28;20405;-79
2023/01/06 01:56:55;;;;;;;13.50;3.80;;;10.50;99.90;;;;;;5093415;27;20428;-78
2023/01/06 01:59:27;;;;;;;15.65;4.00;;;10.50;99.90;;;;;;5077771;28;20392;-78
2023/01/06 02:01:53;;;;;;;13.50;4.70;;;10.50;99.90;;;;;;5091623;28;20406;-79
2023/01/06 02:04:21;;;;;;;14.48;4.43;;;10.50;99.90;;;;;;5075917;28;20401;-79
2023/01/06 02:06:49;;;;;;;17.27;4.85;;;10.50;99.90;;;;;;5086760;28;20402;-79
2023/01/06 02:09:25;;;;;;;14.77;4.80;;;10.40;99.90;;;;;;5086554;28;20402;-78
2023/01/06 02:11:51;;;;;;;11.98;4.60;;;10.40;99.90;;;;;;5087012;28;20414;-78
2023/01/06 02:14:21;;;;;;;15.43;4.40;;;10.40;99.90;;;;;;5086293;28;20810;-78
2023/01/06 02:16:53;;;;;;;11.70;4.22;;;10.40;99.90;;;;;;5094509;28;20468;-78
2023/01/06 02:19:34;;;;;;;13.05;4.22;;;10.50;99.90;;;;;;5087301;28;20410;-78
2023/01/06 02:22:23;;;;;;;10.27;4.07;;;10.40;99.90;;;;;;5070719;28;20425;-78
2023/01/06 02:25:17;;;;;;;13.55;4.07;;;10.40;99.90;;;;;;5083278;28;20760;-78
2023/01/06 02:28:20;;;;;;;12.98;4.10;;;10.40;99.90;;;;;;5078306;28;20772;-79
2023/01/06 02:31:14;;;;;;;11.10;4.13;;;10.50;99.90;;;;;;5087163;28;20406;-78
2023/01/06 02:34:02;;;;;;;14.02;3.65;;;10.40;99.90;;;;;;5092072;28;20408;-79
2023/01/06 02:36:41;;;;;;;9.85;4.00;;;10.40;99.90;;;;;;5089380;28;20910;-78
2023/01/06 02:39:16;;;;;;;12.57;4.22;;;10.40;99.90;;;;;;5099262;28;20414;-78
2023/01/06 02:42:13;;;;;;;10.57;4.45;;;10.40;99.90;;;;;;5088662;28;20438;-79
2023/01/06 02:44:59;;;;;;;11.30;4.93;;;10.40;99.90;;;;;;5079562;28;20415;-78
2023/01/06 02:47:31;;;;;;;10.55;4.60;;;10.40;99.90;;;;;;5097350;28;20403;-78
2023/01/06 02:50:06;;;;;;;10.65;5.70;;;10.40;99.90;;;;;;5087065;28;20405;-79
2023/01/06 02:52:37;;;;;;;10.40;5.15;;;10.50;99.90;;;;;;5087882;28;20497;-78
2023/01/06 02:55:12;;;;;;;11.98;5.10;;;10.40;99.90;;;;;;5087536;28;20805;-78
2023/01/06 02:57:43;;;;;;;11.38;5.43;;;10.40;99.90;;;;;;5087211;28;20493;-78
2023/01/06 03:00:23;;;;;;;14.55;5.60;;;10.40;99.90;;;;;;5087340;28;20510;-79
2023/01/06 03:02:55;;;;;;;11.75;4.80;;;10.40;99.90;;;;;;5088427;28;20520;-79
2023/01/06 03:05:23;;;;;;;12.48;5.00;;;10.40;99.90;;;;;;5087418;28;20424;-78
2023/01/06 03:07:50;;;;;;;10.70;4.60;;;10.40;99.90;;;;;;5090453;28;20413;-79
2023/01/06 03:10:19;;;;;;;10.55;4.60;;;10.40;99.90;;;;;;5090133;28;20413;-79
2023/01/06 03:12:52;;;;;;;10.32;4.30;;;10.40;99.90;;;;;;5094453;28;20398;-79
2023/01/06 03:15:18;;;;;;;9.77;4.10;;;10.40;99.90;;;;;;5096272;28;20860;-79
2023/01/06 03:17:44;;;;;;;9.17;4.33;;;10.40;99.90;;;;;;5089048;28;20477;-79
2023/01/06 03:20:11;;;;;;;10.00;4.23;;;10.40;99.90;;;;;;5089783;28;20422;-79
2023/01/06 03:22:37;;;;;;;10.50;4.57;;;10.40;99.90;;;;;;5089756;28;20451;-79
2023/01/06 03:25:05;;;;;;;10.47;4.10;;;10.40;99.90;;;;;;5091450;28;20409;-79
2023/01/06 03:27:31;;;;;;;7.10;4.10;;;10.40;99.90;;;;;;5072650;28;20416;-79
2023/01/06 03:29:56;;;;;;;8.00;3.85;;;10.40;99.90;;;;;;5091317;28;20405;-79
2023/01/06 03:32:37;;;;;;;8.93;3.73;;;10.40;99.90;;;;;;5088899;28;20406;-79
2023/01/06 03:35:35;;;;;;;8.70;3.83;;;10.40;99.90;;;;;;5073365;28;20420;-79
2023/01/06 03:38:41;;;;;;;10.05;3.88;;;10.40;99.90;;;;;;5090650;28;20445;-79
2023/01/06 03:41:19;;;;;;;8.82;3.50;;;10.40;99.90;;;;;;5091996;28;20462;-79
2023/01/06 03:44:02;;;;;;;10.23;3.63;;;10.40;99.90;;;;;;5090446;28;20449;-79
2023/01/06 03:46:37;;;;;;;8.88;3.63;;;10.40;99.90;;;;;;5091979;28;20414;-79
2023/01/06 03:49:42;;;;;;;8.65;3.58;;;10.30;99.90;;;;;;5093533;28;20906;-79
2023/01/06 03:52:30;;;;;;;7.50;3.90;;;10.30;99.90;;;;;;5077650;28;20414;-79
2023/01/06 03:55:01;;;;;;;8.52;3.83;;;10.40;99.90;;;;;;5089352;28;20414;-79
2023/01/06 03:57:32;;;;;;;8.50;4.10;;;10.30;99.90;;;;;;5085687;28;20485;-79
2023/01/06 04:00:27;;;;;;;9.40;4.00;;;10.30;99.90;;;;;;5072499;28;20433;-79
2023/01/06 04:02:52;;;;;;;9.05;4.20;;;10.40;99.90;;;;;;5090516;28;20414;-79
2023/01/06 04:05:21;;;;;;;8.20;3.70;;;10.30;99.90;;;;;;5089532;28;20896;-79
2023/01/06 04:07:47;;;;;;;8.27;3.63;;;10.30;99.90;;;;;;5072167;28;20417;-79
2023/01/06 04:10:14;;;;;;;6.68;3.90;;;10.40;99.90;;;;;;5088723;28;20768;-79
2023/01/06 04:12:40;;;;;;;6.28;3.20;;;10.30;99.90;;;;;;5089531;28;20406;-79
2023/01/06 04:15:18;;;;;;;9.80;4.10;;;10.30;99.90;;;;;;5091221;28;20922;-79
2023/01/06 04:17:45;;;;;;;6.40;3.60;;;10.30;99.90;;;;;;5092451;28;20410;-79
2023/01/06 04:20:14;;;;;;;6.80;3.45;;;10.30;99.90;;;;;;5096086;28;21066;-79
2023/01/06 04:22:41;;;;;;;7.65;3.75;;;10.40;99.90;;;;;;5091724;28;20405;-79
2023/01/06 04:25:07;;;;;;;7.72;4.50;;;10.40;99.90;;;;;;5095269;28;20747;-79
2023/01/06 04:27:33;;;;;;;6.63;4.55;;;10.40;99.90;;;;;;5076090;28;20406;-79
2023/01/06 04:29:58;;;;;;;6.53;4.40;;;10.40;99.90;;;;;;5096200;28;20403;-79
2023/01/06 04:32:24;;;;;;;6.15;4.35;;;10.40;99.90;;;;;;5089014;28;20402;-79
2023/01/06 04:34:50;;;;;;;8.43;4.50;;;10.40;99.90;;;;;;5088098;28;20414;-79
2023/01/06 04:37:16;;;;;;;10.75;4.95;;;10.40;99.90;;;;;;5090351;28;20485;-79
2023/01/06 04:39:41;;;;;;;6.50;4.38;;;10.40;99.90;;;;;;5089154;28;20751;-79
2023/01/06 04:42:07;;;;;;;7.63;4.55;;;10.40;99.90;;;;;;5090703;28;20425;-79
2023/01/06 04:44:33;;;;;;;8.40;4.70;;;10.40;99.90;;;;;;5088543;28;20899;-79
2023/01/06 04:46:58;;;;;;;7.82;4.20;;;10.40;99.90;;;;;;5090636;28;20459;-79
2023/01/06 04:49:24;;;;;;;8.53;4.37;;;10.40;99.90;;;;;;5088787;28;20409;-79
2023/01/06 04:51:50;;;;;;;4.82;3.80;;;10.40;99.90;;;;;;5090347;28;20398;-79
2023/01/06 04:54:15;;;;;;;8.67;4.03;;;10.40;99.90;;;;;;5088486;28;20543;-79
2023/01/06 04:56:41;;;;;;;6.43;4.00;;;10.40;99.90;;;;;;5089894;28;20410;-79
2023/01/06 04:59:07;;;;;;;8.43;4.10;;;10.40;99.90;;;;;;5089083;28;20394;-79
2023/01/06 05:01:32;;;;;;;6.75;4.38;;;10.40;99.90;;;;;;5087825;28;20432;-79
2023/01/06 05:03:58;;;;;;;8.23;4.22;;;10.40;99.90;;;;;;5088153;28;20489;-79
2023/01/06 05:06:24;;;;;;;6.83;3.90;;;10.40;99.90;;;;;;5070992;28;20455;-79
2023/01/06 05:08:50;;;;;;;8.45;4.32;;;10.30;99.90;;;;;;5087842;28;20449;-79
2023/01/06 05:11:17;;;;;;;6.72;4.13;;;10.30;99.90;;;;;;5087684;28;20892;-79
2023/01/06 05:13:43;;;;;;;7.60;3.50;;;10.30;99.90;;;;;;5090801;28;20409;-79
2023/01/06 05:16:15;;;;;;;4.63;2.83;;;10.30;99.90;;;;;;5087911;28;20947;-78
2023/01/06 05:18:41;;;;;;;5.18;2.50;;;10.30;99.90;;;;;;5093468;28;20741;-79
2023/01/06 05:21:07;;;;;;;6.10;2.60;;;10.30;99.90;;;;;;5071253;28;20436;-79
2023/01/06 05:23:32;;;;;;;4.50;2.20;;;10.30;99.90;;;;;;5089166;28;20452;-79
2023/01/06 05:25:58;;;;;;;5.65;2.90;;;10.30;99.90;;;;;;5086556;28;20471;-79
2023/01/06 05:28:24;;;;;;;5.47;2.50;;;10.30;99.90;;;;;;5086955;28;20414;-79
2023/01/06 05:30:49;;;;;;;5.40;2.40;;;10.30;99.90;;;;;;5087731;28;20489;-79
2023/01/06 05:33:15;;;;;;;5.40;2.77;;;10.30;99.90;;;;;;5088705;28;20394;-79
2023/01/06 05:35:41;;;;;;;4.07;2.30;;;10.40;99.90;;;;;;5088006;28;20857;-79
2023/01/06 05:38:06;;;;;;;5.25;2.20;;;10.40;99.90;;;;;;5088272;28;20915;-79
2023/01/06 05:40:34;;;;;;;5.67;2.10;;;10.40;99.90;;;;;;5088777;28;20414;-79
2023/01/06 05:42:59;;;;;;;4.40;2.20;;;10.40;99.90;;;;;;5086976;28;20398;-79
2023/01/06 05:45:25;;;;;;;4.03;1.93;;;10.50;99.90;;;;;;5088544;28;20406;-79
2023/01/06 05:47:51;;;;;;;5.03;2.00;;;10.50;99.90;;;;;;5088427;28;20428;-79
2023/01/06 05:50:17;;;;;;;4.57;2.47;;;10.50;99.90;;;;;;5087451;28;20414;-79
2023/01/06 05:52:43;;;;;;;5.13;2.63;;;10.50;99.90;;;;;;5087245;28;20428;-79
2023/01/06 05:55:09;;;;;;;6.63;3.10;;;10.50;99.90;;;;;;5087555;28;20496;-79
2023/01/06 05:57:35;;;;;;;5.45;3.75;;;10.50;99.90;;;;;;5086945;28;20463;-79
2023/01/06 06:00:04;;;;;;;5.57;3.60;;;10.50;99.90;;;;;;5095961;28;20501;-79
2023/01/06 06:02:30;;;;;;;6.07;4.07;;;10.50;99.90;;;;;;5098038;28;20412;-79
2023/01/06 06:04:55;;;;;;;5.63;4.55;;;10.50;99.90;;;;;;5094084;28;20398;-79
2023/01/06 06:07:21;;;;;;;7.63;5.10;;;10.40;99.90;;;;;;5096508;28;20434;-79
2023/01/06 06:09:47;;;;;;;8.00;4.75;;;10.40;99.90;;;;;;5093508;28;20398;-79
2023/01/06 06:12:12;;;;;;;6.90;5.43;;;10.40;99.90;;;;;;5096382;28;20437;-79
2023/01/06 06:14:38;;;;;;;7.63;5.85;;;10.40;99.90;;;;;;5091355;28;20394;-79
2023/01/06 06:17:04;;;;;;;7.23;5.90;;;10.40;99.90;;;;;;5090106;28;20409;-79
2023/01/06 06:19:29;;;;;;;7.53;6.22;;;10.30;99.90;;;;;;5090843;28;20406;-79
2023/01/06 06:21:55;;;;;;;7.53;6.37;;;10.30;99.90;;;;;;5090245;28;20422;-79
2023/01/06 06:24:20;;;;;;;10.82;7.20;;;10.20;99.90;;;;;;5090487;28;20402;-79
2023/01/06 06:26:46;;;;;;;10.30;6.70;;;10.20;99.90;;;;;;5074868;28;20946;-79
2023/01/06 06:29:11;;;;;;;10.75;7.07;;;10.20;99.90;;;;;;5072968;28;20429;-79
2023/01/06 06:31:37;;;;;;;10.70;7.27;;;10.10;99.90;;;;;;5092396;28;20799;-79
2023/01/06 06:34:03;;;;;;;9.32;7.47;;;10.00;99.90;;;;;;5090395;28;20402;-77
2023/01/06 06:36:29;;;;;;;9.47;7.53;;;10.00;99.90;;;;;;5092172;28;20477;-77
2023/01/06 06:38:55;;;;;;;10.15;7.45;;;10.00;99.90;;;;;;5089062;28;20445;-76
2023/01/06 06:41:23;;;;;;;9.10;6.60;;;10.00;99.90;;;;;;5088420;28;20422;-78
2023/01/06 06:43:49;;;;;;;8.80;7.43;;;10.00;99.90;;;;;;5086465;28;20426;-78
2023/01/06 06:46:15;;;;;;;8.98;6.88;;;10.00;99.90;;;;;;5087705;28;20497;-79
2023/01/06 06:48:41;;;;;;;8.63;7.20;;;9.90;99.90;;;;;;5091412;28;20532;-79
2023/01/06 06:51:09;;;;;;;9.40;6.85;;;10.00;99.90;;;;;;5077153;28;20815;-79
2023/01/06 06:53:35;;;;;;;9.20;7.38;;;10.00;99.90;;;;;;5091833;28;20493;-79
2023/01/06 06:56:03;;;;;;;8.80;7.10;;;10.00;99.90;;;;;;5093080;28;20402;-79
2023/01/06 06:58:28;;;;;;;8.70;6.72;;;9.90;99.90;;;;;;5075171;28;20406;-79
2023/01/06 07:00:54;;;;;;;7.57;6.50;;;9.90;99.90;;;;;;5078766;28;20428;-79
2023/01/06 07:03:21;;;;;;;11.03;7.13;;;9.90;99.90;;;;;;5093369;28;20398;-79
2023/01/06 07:05:49;;;;;;;12.20;7.35;;;9.90;99.90;;;;;;5096653;28;20795;-79
2023/01/06 07:08:15;;;;;;;9.63;7.47;;;9.90;99.90;;;;;;5093580;28;20402;-79
2023/01/06 07:10:41;;;;;;;10.90;7.60;;;9.90;99.90;;;;;;5095284;28;20479;-79
2023/01/06 07:13:07;;;;;;;10.25;7.90;;;9.90;99.90;;;;;;5069671;28;20445;-79
2023/01/06 07:15:33;;;;;;;11.07;7.53;;;9.90;99.90;;;;;;5085784;28;20401;-79
2023/01/06 07:18:00;;;;;;;11.03;8.53;;;9.90;99.90;;;;;;5089129;28;20444;-79
2023/01/06 07:20:26;;;;;;;11.38;8.60;;;9.80;99.90;;;;;;5088745;28;20421;-79
2023/01/06 07:22:51;;;;;;;11.27;8.60;;;9.80;99.90;;;;;;5091075;28;20402;-79
2023/01/06 07:25:17;;;;;;;11.38;8.98;;;9.70;99.90;;;;;;5090029;28;20513;-78
2023/01/06 07:27:42;;;;;;;13.80;8.70;;;9.70;99.90;;;;;;5089210;28;20402;-78
2023/01/06 07:30:09;;;;;;;10.07;8.00;;;9.80;99.90;;;;;;5088435;28;20394;-79
2023/01/06 07:32:34;;;;;;;10.48;8.05;;;9.70;99.90;;;;;;5090172;28;20520;-79
2023/01/06 07:35:00;;;;;;;10.75;7.10;;;9.70;99.90;;;;;;5073022;28;20438;-79
2023/01/06 07:37:26;;;;;;;9.90;7.13;;;9.70;99.90;;;;;;5088844;28;20874;-79
2023/01/06 07:39:51;;;;;;;7.78;5.75;;;9.70;99.90;;;;;;5088619;28;20468;-79
2023/01/06 07:42:17;;;;;;;7.97;5.33;;;9.80;99.90;;;;;;5091017;28;20406;-79
2023/01/06 07:44:42;;;;;;;8.15;5.20;;;9.70;99.90;;;;;;5086701;28;20403;-79
2023/01/06 07:47:09;;;;;;;7.23;4.80;;;9.70;99.90;;;;;;5091167;28;20406;-79
2023/01/06 07:49:35;;;;;;;4.82;4.25;;;9.80;99.90;;;;;;5091380;28;20402;-79
2023/01/06 07:52:00;;;;;;;5.50;4.13;;;9.80;99.90;;;;;;5092379;28;20425;-79
2023/01/06 07:54:26;;;;;;;4.63;3.37;;;9.80;99.90;;;;;;5076007;28;20505;-79
2023/01/06 07:56:52;;;;;;;4.03;2.72;;;9.80;99.90;;;;;;5093111;28;20492;-79
2023/01/06 07:59:17;;;;;;;3.33;2.30;;;9.80;99.90;;;;;;5093427;28;20834;-79
2023/01/06 08:01:43;;;;;;;3.97;2.17;;;9.80;99.90;;;;;;5093844;28;20441;-79
2023/01/06 08:04:08;;;;;;;6.17;1.80;;;9.90;99.90;;;;;;5095340;28;20453;-79
2023/01/06 08:06:34;;;;;;;4.78;1.80;;;9.80;99.90;;;;;;5093862;28;20439;-79
2023/01/06 08:09:01;;;;;;;5.60;1.53;;;9.90;99.90;;;;;;5095295;28;20413;-79
2023/01/06 08:11:26;;;;;;;3.97;1.25;;;9.80;99.90;;;;;;5093251;28;20398;-79
2023/01/06 08:13:52;;;;;;;3.93;1.20;;;9.80;99.90;;;;;;5090939;28;20413;-79
2023/01/06 08:16:17;;;;;;;4.93;1.20;;;9.80;99.90;;;;;;5088961;28;20443;-79
2023/01/06 08:18:43;;;;;;;4.70;0.90;;;9.70;99.90;;;;;;5089029;28;20434;-79
2023/01/06 08:21:10;;;;;;;4.72;0.90;;;9.60;99.90;;;;;;5088614;28;20453;-79
2023/01/06 08:23:36;;;;;;;6.25;1.10;;;9.50;99.90;;;;;;5088841;28;20939;-79
2023/01/06 08:26:05;;;;;;;5.53;1.30;;;9.50;99.90;;;;;;5090075;28;20398;-79
2023/01/06 08:28:30;;;;;;;3.92;0.70;;;9.40;99.90;;;;;;5089177;28;20588;-79
2023/01/06 08:30:56;;;;;;;2.15;0.40;;;9.30;99.90;;;;;;5089877;28;20438;-79
2023/01/06 08:33:24;;;;;;;2.60;0.30;;;9.30;99.90;;;;;;5089237;28;20899;-79
2023/01/06 08:36:01;;;;;;;2.22;0.20;;;9.20;99.90;;;;;;5089223;28;20412;-79
2023/01/06 08:38:27;;;;;;;3.58;0.50;;;9.10;99.90;;;;;;5089183;28;20418;-79
2023/01/06 08:40:55;;;;;;;2.28;0.20;;;9.10;99.90;;;;;;5071734;28;20564;-79
2023/01/06 08:43:20;;;;;;;3.38;0.20;;;9.00;99.90;;;;;;5088774;28;20429;-79
2023/01/06 08:45:46;;;;;;;2.20;0.20;;;8.90;99.90;;;;;;5071727;28;20393;-79
2023/01/06 08:48:12;;;;;;;1.70;0.20;;;8.90;99.90;;;;;;5088367;28;20794;-79
2023/01/06 08:50:39;;;;;;;1.90;0.20;;;8.80;99.90;;;;;;5089372;28;20501;-79
2023/01/06 08:53:05;;;;;;;2.45;0.20;;;8.80;99.90;;;;;;5089121;28;20906;-79
2023/01/06 08:55:31;;;;;;;1.65;0.13;;;8.80;99.90;;;;;;5088442;28;20441;-79
2023/01/06 08:57:57;;;;;;;2.03;0.30;;;8.70;99.90;;;;;;5088635;28;20437;-79
2023/01/06 09:00:22;;;;;;;3.47;0.20;;;8.70;99.90;;;;;;5087749;28;20454;-79
2023/01/06 09:02:48;;;;;;;3.90;0.20;;;8.70;99.90;;;;;;5071611;28;20409;-79
2023/01/06 09:05:14;;;;;;;4.32;0.30;;;8.60;99.90;;;;;;5088713;28;20413;-79
2023/01/06 09:07:39;;;;;;;2.73;0.30;;;8.60;99.90;;;;;;5088234;28;20437;-79
2023/01/06 09:10:06;;;;;;;3.85;0.38;;;8.60;99.90;;;;;;5089106;28;20395;-79
2023/01/06 09:12:32;;;;;;;2.30;0.30;;;8.60;99.90;;;;;;5071123;28;20923;-79
2023/01/06 09:14:58;;;;;;;4.70;0.43;;;8.50;99.90;;;;;;5088232;28;20519;-79
2023/01/06 09:17:24;;;;;;;3.17;0.30;;;8.50;99.90;;;;;;5087854;28;20854;-79
2023/01/06 09:19:49;;;;;;;3.92;0.40;;;8.60;99.90;;;;;;5073289;28;20401;-79
2023/01/06 09:22:15;;;;;;;4.73;0.47;;;8.50;99.90;;;;;;5087529;28;20461;-79
2023/01/06 09:24:40;;;;;;;5.38;0.50;;;8.50;99.90;;;;;;5090583;28;20416;-79
2023/01/06 09:27:06;;;;;;;3.33;0.33;;;8.50;99.90;;;;;;5091744;28;20406;-80
2023/01/06 09:29:31;;;;;;;3.85;0.50;;;8.50;99.90;;;;;;5087377;28;20420;-79
2023/01/06 09:31:57;;;;;;;5.77;0.50;;;8.50;99.90;;;;;;5070178;28;20934;-79
2023/01/06 09:34:23;;;;;;;8.73;0.70;;;8.50;99.90;;;;;;5094808;28;20491;-79
2023/01/06 09:36:48;;;;;;;6.90;0.70;;;8.50;99.90;;;;;;5090837;28;20432;-79
2023/01/06 09:39:14;;;;;;;7.80;0.57;;;8.50;99.90;;;;;;5093278;28;20416;-79
2023/01/06 09:41:45;;;;;;;4.97;0.80;;;8.50;99.90;;;;;;5091038;28;20449;-79
2023/01/06 09:44:24;;;;;;;4.40;0.68;;;8.50;99.90;;;;;;5093773;28;20424;-80
2023/01/06 09:46:51;;;;;;;8.82;0.95;;;8.50;99.90;;;;;;5090411;28;20499;-79
2023/01/06 09:49:44;;;;;;;8.85;0.90;;;8.60;99.90;;;;;;5093248;28;20400;-79
2023/01/06 09:52:33;;;;;;;10.13;1.25;;;8.60;99.90;;;;;;5092097;28;20958;-79
2023/01/06 09:55:07;;;;;;;8.38;0.80;;;8.60;99.90;;;;;;5080864;28;20828;-79
2023/01/06 09:57:57;;;;;;;7.25;0.88;;;8.70;99.90;;;;;;5093815;28;20819;-79
2023/01/06 10:00:35;;;;;;;9.55;1.10;;;8.70;99.90;;;;;;5093230;28;20428;-79
2023/01/06 10:03:01;;;;;;;8.05;1.02;;;8.70;99.90;;;;;;5091525;28;20410;-79
2023/01/06 10:05:55;;;;;;;8.67;0.87;;;8.70;99.90;;;;;;5091430;28;20394;-79
2023/01/06 10:08:42;;;;;;;7.50;0.90;;;8.80;99.90;;;;;;5086278;28;20429;-79
2023/01/06 10:11:38;;;;;;;9.80;0.95;;;8.90;99.90;;;;;;5083925;28;20459;-79
2023/01/06 10:14:15;;;;;;;8.50;0.90;;;9.10;99.90;;;;;;5086829;28;20533;-79
2023/01/06 10:17:17;;;;;;;7.82;1.02;;;9.20;99.90;;;;;;5085987;28;20406;-79
2023/01/06 10:19:51;;;;;;;6.22;0.93;;;9.20;99.90;;;;;;5086926;28;20416;-80
2023/01/06 10:22:41;;;;;;;9.05;1.42;;;9.20;99.90;;;;;;5086923;28;20434;-79
2023/01/06 10:25:26;;;;;;;13.20;0.90;;;9.10;99.90;;;;;;5083564;28;20413;-79
2023/01/06 10:28:08;;;;;;;7.37;1.20;;;9.10;99.90;;;;;;5086954;28;20410;-79
2023/01/06 10:30:42;;;;;;;8.15;0.82;;;9.10;99.90;;;;;;5086716;28;20493;-79
2023/01/06 10:33:23;;;;;;;9.00;1.20;;;9.10;99.90;;;;;;5083223;28;20485;-79
2023/01/06 10:35:50;;;;;;;9.82;1.15;;;9.10;99.90;;;;;;5086606;28;20406;-79
2023/01/06 10:38:20;;;;;;;7.40;0.70;;;9.10;99.90;;;;;;5086438;28;20445;-80
2023/01/06 10:40:45;;;;;;;8.13;1.00;;;9.10;99.90;;;;;;5090303;28;20434;-79
2023/01/06 10:43:13;;;;;;;10.27;1.30;;;9.20;99.90;;;;;;5074804;28;20402;-79
2023/01/06 10:45:43;;;;;;;10.02;1.10;;;9.20;99.90;;;;;;5091750;28;21021;-79
2023/01/06 10:48:14;;;;;;;8.82;0.93;;;9.20;99.90;;;;;;5075097;28;20414;-79
2023/01/06 10:50:40;;;;;;;6.38;0.80;;;9.20;99.90;;;;;;5086381;28;20414;-79
2023/01/06 10:53:05;;;;;;;10.35;1.60;;;9.20;99.90;;;;;;5086391;28;20451;-79
2023/01/06 10:55:40;;;;;;;13.33;1.37;;;9.40;99.90;;;;;;5085209;28;20420;-79
2023/01/06 10:58:44;;;;;;;5.63;0.60;;;9.60;99.90;;;;;;5093103;28;20433;-79
2023/01/06 11:01:24;;;;;;;9.88;1.00;;;9.90;99.90;;;;;;5083840;28;21051;-79
2023/01/06 11:04:11;;;;;;;8.32;1.10;;;9.90;99.90;;;;;;5098014;28;20397;-79
2023/01/06 11:06:48;;;;;;;8.23;0.82;;;10.20;99.90;;;;;;5087843;28;20415;-79
2023/01/06 11:09:31;;;;;;;7.45;1.00;;;10.60;99.90;;;;;;5092374;28;20418;-79
2023/01/06 11:12:03;;;;;;;9.50;1.20;;;10.90;99.90;;;;;;5087377;28;20497;-78
2023/01/06 11:14:31;;;;;;;7.57;1.03;;;11.00;99.90;;;;;;5086085;28;20496;-79
2023/01/06 11:17:01;;;;;;;8.18;0.90;;;11.20;99.90;;;;;;5086337;28;20402;-79
2023/01/06 11:19:38;;;;;;;7.72;1.02;;;11.50;99.90;;;;;;5070046;28;20975;-79
2023/01/06 11:22:35;;;;;;;8.43;0.75;;;11.60;99.90;;;;;;5090928;28;20426;-79
2023/01/06 11:25:02;;;;;;;8.02;0.80;;;11.70;99.90;;;;;;5086649;28;20522;-79
2023/01/06 11:27:28;;;;;;;6.55;0.85;;;11.90;99.90;;;;;;5090041;28;20572;-80
2023/01/06 11:29:53;;;;;;;9.10;0.83;;;11.90;99.90;;;;;;5095134;28;20492;-79
2023/01/06 11:32:25;;;;;;;7.45;0.85;;;11.80;99.90;;;;;;5089867;28;20416;-79
2023/01/06 11:35:03;;;;;;;9.93;1.13;;;11.70;99.90;;;;;;5091566;28;20508;-79
2023/01/06 11:37:38;;;;;;;6.75;0.80;;;11.70;99.90;;;;;;5089425;28;21033;-79
2023/01/06 11:40:32;;;;;;;7.65;1.08;;;11.60;99.90;;;;;;5091183;28;20910;-79
2023/01/06 11:43:27;;;;;;;10.70;1.70;;;11.50;99.90;;;;;;5091542;28;20398;-79
2023/01/06 11:45:56;;;;;;;6.22;0.90;;;11.30;99.90;;;;;;5095881;28;20423;-79
2023/01/06 11:48:30;;;;;;;8.63;0.88;;;11.20;99.90;;;;;;5093407;28;20795;-80
2023/01/06 11:51:01;;;;;;;7.88;0.98;;;11.00;99.90;;;;;;5096187;28;20443;-79
2023/01/06 11:53:28;;;;;;;9.55;1.05;;;10.80;99.90;;;;;;5075826;28;20406;-79
2023/01/06 11:56:02;;;;;;;7.38;0.85;;;10.60;99.90;;;;;;5096383;28;20522;-79
2023/01/06 11:58:45;;;;;;;9.60;1.23;;;10.40;99.90;;;;;;5096059;28;20421;-79
2023/01/06 12:01:32;;;;;;;8.60;0.93;;;10.30;99.90;;;;;;5094583;28;20425;-79
2023/01/06 12:04:46;;;;;;;6.85;1.00;;;10.20;99.90;;;;;;5084904;28;20417;-79
2023/01/06 12:07:36;;;;;;;7.18;1.13;;;10.20;99.90;;;;;;5072594;28;20561;-79
2023/01/06 12:10:11;;;;;;;9.55;1.20;;;10.20;99.90;;;;;;5096740;28;20486;-79
2023/01/06 12:12:37;;;;;;;9.63;1.60;;;10.20;99.90;;;;;;5092876;28;20443;-80
2023/01/06 12:15:03;;;;;;;7.43;1.25;;;10.30;99.90;;;;;;5091315;28;20879;-79
2023/01/06 12:17:45;;;;;;;10.65;1.20;;;10.20;99.90;;;;;;5089979;28;20402;-79
2023/01/06 12:20:29;;;;;;;6.38;0.90;;;10.20;99.90;;;;;;5085462;28;20406;-79
2023/01/06 12:23:01;;;;;;;7.70;1.10;;;10.30;99.90;;;;;;5088908;28;20577;-79
2023/01/06 12:25:40;;;;;;;10.50;1.50;;;10.30;99.90;;;;;;5089039;28;20401;-79
2023/01/06 12:28:15;;;;;;;9.85;1.13;;;10.30;99.90;;;;;;5090201;28;20413;-79
2023/01/06 12:30:43;;;;;;;9.93;1.30;;;10.30;99.90;;;;;;5089916;28;20442;-79
2023/01/06 12:33:19;;;;;;;8.43;1.50;;;10.30;99.90;;;;;;5088651;28;20412;-79
2023/01/06 12:35:48;;;;;;;9.57;1.08;;;10.40;99.90;;;;;;5089364;28;20907;-79
2023/01/06 12:38:31;;;;;;;9.77;1.52;;;10.30;99.90;;;;;;5071660;28;20417;-79
2023/01/06 12:41:06;;;;;;;10.18;1.58;;;10.20;99.90;;;;;;5088941;28;20878;-80
2023/01/06 12:43:36;;;;;;;7.78;1.20;;;10.20;99.90;;;;;;5088653;28;20410;-79
2023/01/06 12:46:10;;;;;;;9.80;1.50;;;10.10;99.90;;;;;;5071518;28;20394;-79
2023/01/06 12:48:42;;;;;;;8.03;1.47;;;10.10;99.90;;;;;;5088946;28;20402;-79
2023/01/06 12:51:13;;;;;;;9.38;1.05;;;10.10;99.90;;;;;;5089876;28;20789;-79
2023/01/06 12:54:05;;;;;;;5.97;1.08;;;10.10;99.90;;;;;;5089068;28;20414;-79
2023/01/06 12:56:33;;;;;;;9.10;1.42;;;10.10;99.90;;;;;;5080976;28;20455;-80
2023/01/06 12:59:14;;;;;;;10.38;1.30;;;10.10;99.90;;;;;;5089195;28;20931;-79
2023/01/06 13:01:59;;;;;;;9.95;1.30;;;10.10;99.90;;;;;;5089843;28;20426;-79
2023/01/06 13:04:54;;;;;;;8.10;1.05;;;10.10;99.90;;;;;;5089807;28;20402;-79
2023/01/06 13:07:52;;;;;;;8.18;0.90;;;10.10;99.90;;;;;;5084747;28;20421;-79